createdAt,value
2018-05-24T00:00:11.809Z,11.27
2018-05-24T00:02:41.033Z,10.70
2018-05-24T00:05:09.204Z,10.73
2018-05-24T00:07:37.303Z,10.30
2018-05-24T00:10:05.671Z,10.20
2018-05-24T00:12:33.834Z,9.40
2018-05-24T00:15:02.271Z,9.60
2018-05-24T00:17:30.794Z,9.20
2018-05-24T00:19:59.557Z,9.10
2018-05-24T00:22:27.613Z,9.03
2018-05-24T00:24:55.947Z,8.67
2018-05-24T00:27:25.253Z,8.17
2018-05-24T00:29:54.404Z,8.50
2018-05-24T00:32:22.749Z,7.77
2018-05-24T00:34:51.866Z,7.70
2018-05-24T00:37:21.281Z,7.60
2018-05-24T00:39:49.815Z,7.63
2018-05-24T00:42:18.431Z,7.97
2018-05-24T00:44:47.480Z,7.70
2018-05-24T00:47:16.342Z,7.77
2018-05-24T00:49:44.785Z,7.43
2018-05-24T00:52:13.835Z,7.10
2018-05-24T00:54:42.076Z,7.00
2018-05-24T00:57:10.545Z,7.30
2018-05-24T00:59:39.160Z,7.40
2018-05-24T01:02:07.558Z,7.20
2018-05-24T01:04:35.854Z,7.17
2018-05-24T01:07:03.953Z,6.83
2018-05-24T01:09:32.943Z,7.63
2018-05-24T01:12:01.408Z,7.23
2018-05-24T01:14:30.571Z,7.00
2018-05-24T01:16:58.863Z,6.70
2018-05-24T01:19:29.089Z,7.23
2018-05-24T01:21:57.714Z,7.30
2018-05-24T01:24:26.007Z,6.80
2018-05-24T01:26:54.626Z,6.70
2018-05-24T01:29:22.996Z,6.80
2018-05-24T01:31:51.071Z,6.77
2018-05-24T01:34:19.439Z,6.93
2018-05-24T01:36:57.763Z,6.83
2018-05-24T01:39:26.285Z,6.73
2018-05-24T01:41:54.408Z,6.50
2018-05-24T01:44:22.560Z,6.07
2018-05-24T01:46:50.652Z,6.17
2018-05-24T01:49:19.904Z,6.27
2018-05-24T01:51:48.277Z,7.00
2018-05-24T01:54:16.538Z,6.93
2018-05-24T01:56:44.878Z,6.80
2018-05-24T01:59:13.541Z,7.03
2018-05-24T02:01:42.106Z,6.37
2018-05-24T02:04:10.146Z,6.43
2018-05-24T02:06:38.480Z,6.60
2018-05-24T02:09:06.886Z,6.63
2018-05-24T02:11:35.203Z,5.87
2018-05-24T02:14:04.773Z,6.77
2018-05-24T02:16:33.856Z,6.90
2018-05-24T02:19:02.467Z,7.90
2018-05-24T02:21:32.284Z,7.23
2018-05-24T02:24:00.423Z,6.73
2018-05-24T02:26:28.649Z,6.83
2018-05-24T02:28:57.851Z,7.53
2018-05-24T02:31:26.308Z,8.17
2018-05-24T02:33:55.652Z,7.63
2018-05-24T02:36:24.081Z,9.00
2018-05-24T02:38:53.304Z,9.43
2018-05-24T02:41:22.250Z,9.23
2018-05-24T02:43:50.749Z,9.53
2018-05-24T02:46:18.965Z,8.97
2018-05-24T02:48:47.813Z,9.03
2018-05-24T02:51:16.453Z,9.00
2018-05-24T02:53:44.777Z,8.40
2018-05-24T02:56:13.739Z,9.23
2018-05-24T02:58:42.484Z,9.00
2018-05-24T03:01:11.239Z,8.97
2018-05-24T03:03:39.617Z,9.53
2018-05-24T03:06:08.456Z,9.03
2018-05-24T03:08:36.938Z,11.27
2018-05-24T03:11:05.125Z,11.20
2018-05-24T03:13:33.744Z,10.10
2018-05-24T03:16:01.867Z,9.53
2018-05-24T03:18:30.436Z,10.83
2018-05-24T03:20:58.839Z,10.07
2018-05-24T03:23:28.637Z,9.83
2018-05-24T03:25:56.853Z,9.93
2018-05-24T03:28:24.907Z,9.80
2018-05-24T03:30:53.204Z,9.43
2018-05-24T03:33:21.885Z,9.40
2018-05-24T03:35:50.157Z,9.37
2018-05-24T03:38:20.683Z,8.87
2018-05-24T03:40:49.153Z,9.60
2018-05-24T03:43:17.893Z,9.80
2018-05-24T03:45:46.397Z,9.50
2018-05-24T03:48:14.548Z,8.90
2018-05-24T03:50:42.979Z,8.70
2018-05-24T03:53:13.083Z,9.00
2018-05-24T03:55:42.176Z,9.40
2018-05-24T03:58:10.865Z,9.00
2018-05-24T04:00:50.484Z,8.70
2018-05-24T04:03:50.915Z,8.67
2018-05-24T04:06:19.280Z,8.90
2018-05-24T04:08:47.468Z,9.73
2018-05-24T04:11:16.986Z,9.13
2018-05-24T04:13:45.101Z,8.90
2018-05-24T04:16:14.172Z,9.63
2018-05-24T04:18:42.581Z,9.00
2018-05-24T04:21:11.918Z,8.47
2018-05-24T04:23:41.629Z,9.30
2018-05-24T04:26:10.219Z,8.27
2018-05-24T04:28:38.418Z,8.57
2018-05-24T04:31:06.619Z,8.17
2018-05-24T04:33:35.413Z,6.67
2018-05-24T04:36:04.526Z,7.03
2018-05-24T04:38:33.437Z,7.20
2018-05-24T04:41:02.058Z,6.63
2018-05-24T04:43:31.074Z,7.23
2018-05-24T04:45:59.214Z,7.97
2018-05-24T04:48:27.972Z,6.90
2018-05-24T04:50:56.957Z,6.67
2018-05-24T04:53:25.786Z,6.93
2018-05-24T04:55:55.015Z,7.00
2018-05-24T04:58:24.258Z,7.53
2018-05-24T05:00:52.859Z,7.13
2018-05-24T05:03:21.556Z,6.77
2018-05-24T05:05:50.259Z,8.00
2018-05-24T05:08:19.301Z,7.70
2018-05-24T05:10:47.819Z,7.37
2018-05-24T05:13:15.910Z,6.83
2018-05-24T05:15:44.334Z,7.67
2018-05-24T05:18:14.048Z,7.47
2018-05-24T05:20:42.070Z,7.93
2018-05-24T05:23:11.282Z,7.90
2018-05-24T05:25:40.098Z,8.20
2018-05-24T05:28:08.347Z,9.70
2018-05-24T05:30:37.497Z,8.40
2018-05-24T05:33:06.230Z,7.90
2018-05-24T05:35:34.687Z,7.80
2018-05-24T05:38:02.786Z,8.47
2018-05-24T05:40:30.970Z,7.67
2018-05-24T05:42:59.643Z,24.43
2018-05-24T05:45:28.637Z,17.97
2018-05-24T05:47:57.053Z,20.53
2018-05-24T05:50:25.162Z,10.80
2018-05-24T05:52:54.107Z,10.17
2018-05-24T05:55:22.990Z,7.30
2018-05-24T05:57:51.304Z,7.03
2018-05-24T06:00:20.385Z,7.30
2018-05-24T06:02:48.927Z,6.27
2018-05-24T06:05:17.056Z,6.67
2018-05-24T06:07:46.057Z,6.47
2018-05-24T06:10:14.978Z,6.50
2018-05-24T06:12:43.270Z,7.63
2018-05-24T06:15:11.641Z,9.73
2018-05-24T06:17:40.497Z,10.30
2018-05-24T06:20:09.842Z,14.03
2018-05-24T06:22:38.089Z,7.17
2018-05-24T06:25:06.238Z,8.17
2018-05-24T06:27:36.741Z,7.30
2018-05-24T06:30:05.010Z,7.00
2018-05-24T06:32:33.118Z,6.80
2018-05-24T06:35:02.277Z,7.07
2018-05-24T06:37:30.516Z,6.87
2018-05-24T06:39:58.880Z,7.00
2018-05-24T06:42:29.249Z,6.47
2018-05-24T06:44:57.451Z,6.80
2018-05-24T06:47:26.513Z,16.90
2018-05-24T06:49:54.574Z,7.30
2018-05-24T06:52:22.770Z,7.20
2018-05-24T06:54:51.716Z,6.70
2018-05-24T06:57:19.854Z,6.23
2018-05-24T06:59:48.788Z,6.10
2018-05-24T07:02:16.932Z,7.00
2018-05-24T07:04:46.407Z,6.67
2018-05-24T07:07:14.670Z,6.63
2018-05-24T07:09:42.738Z,7.43
2018-05-24T07:12:11.360Z,6.77
2018-05-24T07:14:40.665Z,6.27
2018-05-24T07:17:08.730Z,6.57
2018-05-24T07:19:38.284Z,6.30
2018-05-24T07:22:06.610Z,6.80
2018-05-24T07:24:35.465Z,6.37
2018-05-24T07:27:04.619Z,6.93
2018-05-24T07:29:35.590Z,6.60
2018-05-24T07:32:03.701Z,6.77
2018-05-24T07:34:33.089Z,6.93
2018-05-24T07:37:01.337Z,6.57
2018-05-24T07:39:29.884Z,6.67
2018-05-24T07:41:58.010Z,6.97
2018-05-24T07:44:26.208Z,7.20
2018-05-24T07:46:55.130Z,7.43
2018-05-24T07:49:23.454Z,7.67
2018-05-24T07:51:52.418Z,7.70
2018-05-24T07:54:20.518Z,8.20
2018-05-24T07:56:48.598Z,7.80
2018-05-24T07:59:17.880Z,8.37
2018-05-24T08:01:46.053Z,7.37
2018-05-24T08:04:14.902Z,7.53
2018-05-24T08:06:44.555Z,8.93
2018-05-24T08:09:13.590Z,8.17
2018-05-24T08:11:42.125Z,10.90
2018-05-24T08:14:10.440Z,8.83
2018-05-24T08:16:38.673Z,8.33
2018-05-24T08:19:07.170Z,8.50
2018-05-24T08:21:35.458Z,8.43
2018-05-24T08:24:04.556Z,8.83
2018-05-24T08:26:33.859Z,8.73
2018-05-24T08:29:02.921Z,8.87
2018-05-24T08:31:33.850Z,8.57
2018-05-24T08:34:02.863Z,8.80
2018-05-24T08:36:31.222Z,8.90
2018-05-24T08:38:59.288Z,9.67
2018-05-24T08:41:27.608Z,8.87
2018-05-24T08:43:56.559Z,9.10
2018-05-24T08:46:24.883Z,9.37
2018-05-24T08:48:54.208Z,9.93
2018-05-24T08:51:22.922Z,10.70
2018-05-24T08:53:52.422Z,8.70
2018-05-24T08:56:20.767Z,10.00
2018-05-24T08:58:50.156Z,8.93
2018-05-24T09:01:18.592Z,9.53
2018-05-24T09:03:46.653Z,8.87
2018-05-24T09:06:20.392Z,9.67
2018-05-24T09:08:48.564Z,10.13
2018-05-24T09:11:17.026Z,10.10
2018-05-24T09:13:45.513Z,9.60
2018-05-24T09:16:14.317Z,10.07
2018-05-24T09:18:43.077Z,10.00
2018-05-24T09:21:11.235Z,12.50
2018-05-24T09:23:39.438Z,10.27
2018-05-24T09:26:07.935Z,9.70
2018-05-24T09:28:36.783Z,10.07
2018-05-24T09:31:05.671Z,9.93
2018-05-24T09:33:34.619Z,9.53
2018-05-24T09:36:04.134Z,9.83
2018-05-24T09:38:33.161Z,9.00
2018-05-24T09:41:02.152Z,9.27
2018-05-24T09:43:30.717Z,8.27
2018-05-24T09:45:59.679Z,9.80
2018-05-24T09:48:28.785Z,10.70
2018-05-24T09:50:57.233Z,11.80
2018-05-24T09:53:25.544Z,11.67
2018-05-24T09:55:54.020Z,11.00
2018-05-24T09:58:22.722Z,10.27
2018-05-24T10:00:51.230Z,9.97
2018-05-24T10:03:19.400Z,10.43
2018-05-24T10:05:48.768Z,10.47
2018-05-24T10:08:17.689Z,11.63
2018-05-24T10:10:46.652Z,10.40
2018-05-24T10:13:15.875Z,9.10
2018-05-24T10:15:44.735Z,9.10
2018-05-24T10:18:14.070Z,9.07
2018-05-24T10:20:43.230Z,8.30
2018-05-24T10:23:12.002Z,9.87
2018-05-24T10:25:40.509Z,8.70
2018-05-24T10:28:08.790Z,7.97
2018-05-24T10:30:37.470Z,8.80
2018-05-24T10:33:07.879Z,7.40
2018-05-24T10:35:38.489Z,8.87
2018-05-24T10:38:07.657Z,7.77
2018-05-24T10:40:36.770Z,8.80
2018-05-24T10:43:06.128Z,8.20
2018-05-24T10:45:35.629Z,8.53
2018-05-24T10:48:04.731Z,10.00
2018-05-24T10:50:32.834Z,7.77
2018-05-24T10:53:00.957Z,13.20
2018-05-24T10:55:29.069Z,9.00
2018-05-24T10:57:58.573Z,9.73
2018-05-24T11:00:26.644Z,8.50
2018-05-24T11:02:54.956Z,8.67
2018-05-24T11:05:23.521Z,9.17
2018-05-24T11:07:52.179Z,9.57
2018-05-24T11:10:22.586Z,8.50
2018-05-24T11:12:51.235Z,8.43
2018-05-24T11:15:19.612Z,9.73
2018-05-24T11:17:48.908Z,9.83
2018-05-24T11:20:18.347Z,8.60
2018-05-24T11:22:48.111Z,8.13
2018-05-24T11:25:17.971Z,9.03
2018-05-24T11:27:46.999Z,8.67
2018-05-24T11:30:15.558Z,9.57
2018-05-24T11:32:44.908Z,8.93
2018-05-24T11:35:16.102Z,9.17
2018-05-24T11:37:45.212Z,9.53
2018-05-24T11:40:13.916Z,9.63
2018-05-24T11:42:42.426Z,11.87
2018-05-24T11:45:10.905Z,10.53
2018-05-24T11:47:39.387Z,9.53
2018-05-24T11:50:08.030Z,9.87
2018-05-24T11:52:36.708Z,9.60
2018-05-24T11:55:05.035Z,10.87
2018-05-24T11:57:33.284Z,11.17
2018-05-24T12:00:01.376Z,9.60
2018-05-24T12:02:29.468Z,9.33
2018-05-24T12:04:58.228Z,9.80
2018-05-24T12:07:26.856Z,11.27
2018-05-24T12:09:55.008Z,9.83
2018-05-24T12:12:24.306Z,10.07
2018-05-24T12:14:52.467Z,10.53
2018-05-24T12:17:22.392Z,10.10
2018-05-24T12:19:52.136Z,10.00
2018-05-24T12:22:20.917Z,10.20
2018-05-24T12:24:49.118Z,10.13
2018-05-24T12:27:17.285Z,9.13
2018-05-24T12:29:45.343Z,9.77
2018-05-24T12:32:13.848Z,10.00
2018-05-24T12:34:42.607Z,9.63
2018-05-24T12:37:10.814Z,10.07
2018-05-24T12:39:39.296Z,9.47
2018-05-24T12:42:08.121Z,8.87
2018-05-24T12:44:36.530Z,11.13
2018-05-24T12:47:04.865Z,10.33
2018-05-24T12:49:34.893Z,9.67
2018-05-24T12:52:03.151Z,8.97
2018-05-24T12:54:31.944Z,9.40
2018-05-24T12:57:00.246Z,9.77
2018-05-24T12:59:28.453Z,10.37
2018-05-24T13:01:57.327Z,9.30
2018-05-24T13:04:26.405Z,8.37
2018-05-24T13:06:54.784Z,7.80
2018-05-24T13:09:23.793Z,6.63
2018-05-24T13:11:52.013Z,6.73
2018-05-24T13:14:20.080Z,6.37
2018-05-24T13:16:48.893Z,7.07
2018-05-24T13:19:17.102Z,6.70
2018-05-24T13:21:45.270Z,7.07
2018-05-24T13:24:13.465Z,7.20
2018-05-24T13:26:42.081Z,8.07
2018-05-24T13:29:11.091Z,8.33
2018-05-24T13:31:39.967Z,10.93
2018-05-24T13:34:08.905Z,9.60
2018-05-24T13:36:37.125Z,8.93
2018-05-24T13:39:06.377Z,9.47
2018-05-24T13:41:35.218Z,10.00
2018-05-24T13:44:03.995Z,9.20
2018-05-24T13:46:32.255Z,11.07
2018-05-24T13:49:00.290Z,10.30
2018-05-24T13:51:28.444Z,8.10
2018-05-24T13:53:57.138Z,7.57
2018-05-24T13:56:25.628Z,7.53
2018-05-24T13:58:54.022Z,7.77
2018-05-24T14:01:22.388Z,6.20
2018-05-24T14:03:50.440Z,7.10
2018-05-24T14:06:19.539Z,6.40
2018-05-24T14:08:47.687Z,7.47
2018-05-24T14:11:16.686Z,6.00
2018-05-24T14:13:45.638Z,5.87
2018-05-24T14:16:15.463Z,5.70
2018-05-24T14:18:44.107Z,8.47
2018-05-24T14:21:12.553Z,9.37
2018-05-24T14:23:41.574Z,9.80
2018-05-24T14:26:09.955Z,9.47
2018-05-24T14:28:38.173Z,9.83
2018-05-24T14:31:06.278Z,10.20
2018-05-24T14:33:34.473Z,10.43
2018-05-24T14:36:02.429Z,8.83
2018-05-24T14:38:30.713Z,9.63
2018-05-24T14:40:59.688Z,10.60
2018-05-24T14:43:27.842Z,11.03
2018-05-24T14:45:56.908Z,11.30
2018-05-24T14:48:25.323Z,9.57
2018-05-24T14:50:54.258Z,8.60
2018-05-24T14:53:22.542Z,9.03
2018-05-24T14:55:50.844Z,8.50
2018-05-24T15:01:52.286Z,9.70
2018-05-24T15:04:20.391Z,11.93
2018-05-24T15:06:48.585Z,14.83
2018-05-24T15:09:17.265Z,14.63
2018-05-24T15:11:46.077Z,14.03
2018-05-24T15:14:14.423Z,12.23
2018-05-24T15:16:43.450Z,11.80
2018-05-24T15:19:14.032Z,12.33
2018-05-24T15:21:42.208Z,12.70
2018-05-24T15:24:11.068Z,11.70
2018-05-24T15:26:39.820Z,16.73
2018-05-24T15:29:08.164Z,11.87
2018-05-24T15:31:37.107Z,11.87
2018-05-24T15:34:05.544Z,12.83
2018-05-24T15:36:34.340Z,13.30
2018-05-24T15:39:02.793Z,13.27
2018-05-24T15:41:31.390Z,12.30
2018-05-24T15:44:00.367Z,12.60
2018-05-24T15:46:30.781Z,12.00
2018-05-24T15:48:59.145Z,12.60
2018-05-24T15:51:27.690Z,13.80
2018-05-24T15:53:57.099Z,13.67
2018-05-24T15:56:25.354Z,15.20
2018-05-24T15:58:54.479Z,16.03
2018-05-24T16:01:23.400Z,14.63
2018-05-24T16:03:51.768Z,15.47
2018-05-24T16:06:19.995Z,17.80
2018-05-24T16:08:48.527Z,9.17
2018-05-24T16:11:17.112Z,6.33
2018-05-24T16:13:47.366Z,6.20
2018-05-24T16:16:15.458Z,6.43
2018-05-24T16:18:43.619Z,6.00
2018-05-24T16:21:13.217Z,6.40
2018-05-24T16:23:41.508Z,5.53
2018-05-24T16:26:09.625Z,6.20
2018-05-24T16:28:37.628Z,7.07
2018-05-24T16:31:05.979Z,7.07
2018-05-24T16:33:34.125Z,12.33
2018-05-24T16:36:02.187Z,16.70
2018-05-24T16:38:30.560Z,19.93
2018-05-24T16:40:59.360Z,19.03
2018-05-24T16:43:27.536Z,21.40
2018-05-24T16:45:56.607Z,22.10
2018-05-24T16:48:25.619Z,23.17
2018-05-24T16:50:55.366Z,22.23
2018-05-24T16:53:24.554Z,22.87
2018-05-24T16:55:52.860Z,24.57
2018-05-24T16:58:21.521Z,24.33
2018-05-24T17:00:49.923Z,23.67
2018-05-24T17:03:18.932Z,20.57
2018-05-24T17:05:47.272Z,21.33
2018-05-24T17:08:15.425Z,20.23
2018-05-24T17:10:43.833Z,21.90
2018-05-24T17:13:11.980Z,20.70
2018-05-24T17:15:40.442Z,20.53
2018-05-24T17:18:08.902Z,20.80
2018-05-24T17:20:38.107Z,20.23
2018-05-24T17:23:07.183Z,19.47
2018-05-24T17:25:35.435Z,19.23
2018-05-24T17:28:04.368Z,15.23
2018-05-24T17:30:35.316Z,17.50
2018-05-24T17:33:10.107Z,14.93
2018-05-24T17:35:38.795Z,12.93
2018-05-24T17:38:09.069Z,12.50
2018-05-24T17:40:37.936Z,12.53
2018-05-24T17:43:06.956Z,12.37
2018-05-24T17:45:35.487Z,12.57
2018-05-24T17:48:05.612Z,13.33
2018-05-24T17:50:34.045Z,12.03
2018-05-24T17:53:02.501Z,12.70
2018-05-24T17:55:30.870Z,13.10
2018-05-24T17:57:59.678Z,12.00
2018-05-24T18:00:27.842Z,13.03
2018-05-24T18:02:56.538Z,12.93
2018-05-24T18:05:25.078Z,12.90
2018-05-24T18:07:54.201Z,13.47
2018-05-24T18:10:22.758Z,13.20
2018-05-24T18:12:56.127Z,13.50
2018-05-24T18:15:24.601Z,13.07
2018-05-24T18:17:53.097Z,15.87
2018-05-24T18:20:21.806Z,16.07
2018-05-24T18:23:54.881Z,16.37
2018-05-24T18:26:23.828Z,14.97
2018-05-24T18:28:51.982Z,15.63
2018-05-24T18:34:40.940Z,17.53
2018-05-24T18:37:10.231Z,18.10
2018-05-24T18:39:39.274Z,17.57
2018-05-24T18:42:08.350Z,17.93
2018-05-24T18:44:40.610Z,18.17
2018-05-24T18:47:10.868Z,18.53
2018-05-24T18:49:40.255Z,19.27
2018-05-24T18:52:08.434Z,18.83
2018-05-24T18:54:36.922Z,19.27
2018-05-24T18:57:06.065Z,18.60
2018-05-24T18:59:34.615Z,18.10
2018-05-24T19:02:03.904Z,20.43
2018-05-24T19:04:35.461Z,19.27
2018-05-24T19:07:05.302Z,18.20
2018-05-24T19:09:34.602Z,18.33
2018-05-24T19:12:03.949Z,18.87
2018-05-24T19:14:34.333Z,18.30
2018-05-24T19:17:03.057Z,17.33
2018-05-24T19:19:33.499Z,18.20
2018-05-24T19:22:02.377Z,18.07
2018-05-24T19:24:30.659Z,18.23
2018-05-24T19:27:03.699Z,18.93
2018-05-24T19:29:33.350Z,17.67
2018-05-24T19:32:01.500Z,17.90
2018-05-24T19:34:30.801Z,17.30
2018-05-24T19:36:59.833Z,16.63
2018-05-24T19:39:29.236Z,16.07
2018-05-24T19:41:58.117Z,13.90
2018-05-24T19:44:26.664Z,13.93
2018-05-24T19:46:58.678Z,15.53
2018-05-24T19:49:27.409Z,17.10
2018-05-24T19:51:56.557Z,17.60
2018-05-24T19:54:25.633Z,17.07
2018-05-24T19:56:54.146Z,18.40
2018-05-24T19:59:25.104Z,17.63
2018-05-24T20:01:54.700Z,17.60
2018-05-24T20:04:23.183Z,16.63
2018-05-24T20:06:53.006Z,17.60
2018-05-24T20:09:22.077Z,17.10
2018-05-24T20:11:50.810Z,16.70
2018-05-24T20:14:19.026Z,15.93
2018-05-24T20:16:47.493Z,16.83
2018-05-24T20:19:15.634Z,16.47
2018-05-24T20:21:44.890Z,15.60
2018-05-24T20:24:13.213Z,17.63
2018-05-24T20:26:41.389Z,18.80
2018-05-24T20:29:09.640Z,17.57
2018-05-24T20:31:38.679Z,18.33
2018-05-24T20:34:06.962Z,14.03
2018-05-24T20:36:35.246Z,14.93
2018-05-24T20:39:05.328Z,14.20
2018-05-24T20:41:33.507Z,13.77
2018-05-24T20:44:01.895Z,14.23
2018-05-24T20:46:30.625Z,18.67
2018-05-24T20:48:58.874Z,15.40
2018-05-24T20:51:27.008Z,14.13
2018-05-24T20:53:55.537Z,13.97
2018-05-24T20:56:23.652Z,14.03
2018-05-24T20:58:52.103Z,17.10
2018-05-24T21:01:20.367Z,15.80
2018-05-24T21:03:48.683Z,16.03
2018-05-24T21:06:16.987Z,16.87
2018-05-24T21:08:45.175Z,17.73
2018-05-24T21:11:13.241Z,18.00
2018-05-24T21:13:41.890Z,17.97
2018-05-24T21:16:10.441Z,16.40
2018-05-24T21:18:38.776Z,15.57
2018-05-24T21:21:07.261Z,18.33
2018-05-24T21:23:35.956Z,13.93
2018-05-24T21:26:04.549Z,11.40
2018-05-24T21:28:32.538Z,10.80
2018-05-24T21:31:00.838Z,11.67
2018-05-24T21:33:29.067Z,10.77
2018-05-24T21:35:57.393Z,11.10
2018-05-24T21:38:26.500Z,11.20
2018-05-24T21:40:54.729Z,11.17
2018-05-24T21:43:22.988Z,11.97
2018-05-24T21:45:51.929Z,12.37
2018-05-24T21:48:21.493Z,12.30
2018-05-24T21:50:49.754Z,12.13
2018-05-24T21:53:17.834Z,12.27
2018-05-24T21:55:46.052Z,12.03
2018-05-24T21:58:14.249Z,10.53
2018-05-24T22:00:47.109Z,12.67
2018-05-24T22:03:15.887Z,12.93
2018-05-24T22:05:44.312Z,13.40
2018-05-24T22:08:12.612Z,14.07
2018-05-24T22:10:40.900Z,13.13
2018-05-24T22:13:09.114Z,11.83
2018-05-24T22:15:37.237Z,11.50
2018-05-24T22:18:05.556Z,11.77
2018-05-24T22:20:34.521Z,11.80
2018-05-24T22:23:02.757Z,10.97
2018-05-24T22:25:30.836Z,11.53
2018-05-24T22:27:59.306Z,11.20
2018-05-24T22:30:27.465Z,12.30
2018-05-24T22:32:55.716Z,13.40
2018-05-24T22:35:24.764Z,12.90
2018-05-24T22:37:53.148Z,11.80
2018-05-24T22:40:21.628Z,11.63
2018-05-24T22:42:49.998Z,11.67
2018-05-24T22:45:19.908Z,11.93
2018-05-24T22:47:48.876Z,11.27
2018-05-24T22:50:17.787Z,12.70
2018-05-24T22:52:45.891Z,13.37
2018-05-24T22:55:13.990Z,13.83
2018-05-24T22:57:42.377Z,13.20
2018-05-24T23:00:10.501Z,13.17
2018-05-24T23:02:39.193Z,14.20
2018-05-24T23:05:07.579Z,13.77
2018-05-24T23:07:36.161Z,14.10
2018-05-24T23:10:04.525Z,14.70
2018-05-24T23:12:32.891Z,15.13
2018-05-24T23:15:01.189Z,15.63
2018-05-24T23:17:29.846Z,14.97
2018-05-24T23:20:01.978Z,14.57
2018-05-24T23:22:37.139Z,15.70
2018-05-24T23:25:05.503Z,16.73
2018-05-24T23:27:33.628Z,16.33
2018-05-24T23:30:02.294Z,16.73
2018-05-24T23:32:30.719Z,16.70
2018-05-24T23:34:59.240Z,17.20
2018-05-24T23:37:27.656Z,14.67
2018-05-24T23:39:56.367Z,16.10
2018-05-24T23:42:25.196Z,15.70
2018-05-24T23:44:53.784Z,16.83
2018-05-24T23:47:22.790Z,15.47
2018-05-24T23:49:51.266Z,15.10
2018-05-24T23:52:19.535Z,16.10
2018-05-24T23:54:48.670Z,14.17
2018-05-24T23:57:17.508Z,14.13
2018-05-24T23:59:47.081Z,14.10
